Time;durP1;ratioP1;P1;durP2;ratioP2;P2;SDS_P1;SDS_P2;PMS_P1;PMS_P2;Temp;Humidity;BMP_temperature;BMP_pressure;BME280_temperature;BME280_humidity;BME280_pressure;Samples;Min_cycle;Max_cycle;Signal;HPM_P1;HPM_P2
2022/09/14 00:00:06;;;;;;;6.55;3.70;;;20.20;99.90;;;20.64;100.00;100140.22;5199146;28;20052;-67
2022/09/14 00:02:42;;;;;;;6.85;3.47;;;20.20;99.90;;;20.64;100.00;100149.94;5185899;28;20077;-67
2022/09/14 00:05:14;;;;;;;7.70;3.72;;;20.20;99.90;;;20.63;100.00;100151.72;5186728;28;20518;-67
2022/09/14 00:07:46;;;;;;;7.28;4.05;;;20.20;99.90;;;20.65;100.00;100138.44;5186156;28;20046;-67
2022/09/14 00:10:18;;;;;;;6.30;3.63;;;20.20;99.90;;;20.65;100.00;100144.63;5186129;28;20042;-67
2022/09/14 00:12:50;;;;;;;6.65;3.30;;;20.20;99.90;;;20.64;100.00;100139.34;5186085;28;20042;-68
2022/09/14 00:15:24;;;;;;;7.00;3.60;;;20.20;99.90;;;20.63;100.00;100135.84;5186101;28;20549;-70
2022/09/14 00:17:56;;;;;;;7.32;3.78;;;20.20;99.90;;;20.64;100.00;100126.13;5185455;28;20046;-67
2022/09/14 00:20:29;;;;;;;10.77;5.88;;;20.20;99.90;;;20.64;100.00;100115.53;5184891;28;20037;-67
2022/09/14 00:23:02;;;;;;;11.80;5.10;;;20.20;99.90;;;20.61;100.00;100105.88;5185838;28;20037;-67
2022/09/14 00:25:34;;;;;;;9.18;4.60;;;20.20;99.90;;;20.60;100.00;100101.44;5185668;28;20077;-68
2022/09/14 00:28:06;;;;;;;9.60;4.32;;;20.20;99.90;;;20.59;100.00;100102.34;5184251;28;20191;-67
2022/09/14 00:30:43;;;;;;;8.50;4.68;;;20.10;99.90;;;20.59;100.00;100097.06;5186688;28;20145;-67
2022/09/14 00:33:15;;;;;;;7.10;4.03;;;20.10;99.90;;;20.57;100.00;100090.94;5186600;28;20042;-68
2022/09/14 00:35:47;;;;;;;8.57;4.50;;;20.20;99.90;;;20.56;100.00;100092.69;5186508;28;20081;-68
2022/09/14 00:38:20;;;;;;;8.07;3.90;;;20.10;99.90;;;20.57;100.00;100088.28;5185941;28;20050;-67
2022/09/14 00:40:57;;;;;;;7.22;4.00;;;20.10;99.90;;;20.58;100.00;100087.38;5184302;28;20076;-68
2022/09/14 00:43:30;;;;;;;7.40;3.60;;;20.10;99.90;;;20.57;100.00;100078.56;5185895;28;20410;-68
2022/09/14 00:46:03;;;;;;;6.75;3.63;;;20.10;99.90;;;20.58;100.00;100087.38;5185373;28;20046;-67
2022/09/14 00:48:35;;;;;;;8.77;3.78;;;20.10;99.90;;;20.59;100.00;100081.19;5185274;28;20042;-67
2022/09/14 00:51:07;;;;;;;7.40;3.90;;;20.10;99.90;;;20.60;100.00;100080.28;5185516;28;20045;-68
2022/09/14 00:53:40;;;;;;;8.95;4.63;;;20.10;99.90;;;20.56;100.00;100078.59;5185382;28;20052;-67
2022/09/14 00:56:13;;;;;;;13.32;6.40;;;20.10;99.90;;;20.51;100.00;100068.06;5184861;28;20069;-67
2022/09/14 00:58:49;;;;;;;11.65;5.72;;;20.10;99.90;;;20.50;100.00;100066.34;5185515;28;20038;-68
2022/09/14 01:01:23;;;;;;;10.00;4.88;;;20.10;99.90;;;20.49;100.00;100058.44;5184706;28;20467;-68
2022/09/14 01:03:55;;;;;;;10.40;4.97;;;20.10;99.90;;;20.51;100.00;100056.63;5185003;28;20049;-70
2022/09/14 01:06:37;;;;;;;8.43;4.72;;;20.10;99.90;;;20.52;100.00;100061.88;5184859;28;20060;-68
2022/09/14 01:09:29;;;;;;;9.23;4.93;;;20.10;99.90;;;20.52;100.00;100068.94;5185329;28;20045;-68
2022/09/14 01:12:12;;;;;;;8.77;4.25;;;20.10;99.90;;;20.53;100.00;100065.41;5185015;28;20034;-67
2022/09/14 01:14:54;;;;;;;9.23;4.55;;;20.10;99.90;;;20.54;100.00;100073.34;5184810;28;20442;-68
2022/09/14 01:17:37;;;;;;;8.75;4.40;;;20.10;99.90;;;20.55;100.00;100066.25;5184303;28;20053;-68
2022/09/14 01:20:25;;;;;;;7.57;4.18;;;20.10;99.90;;;20.55;100.00;100064.50;5184546;28;20052;-68
2022/09/14 01:23:08;;;;;;;10.63;4.28;;;20.10;99.90;;;20.55;100.00;100063.63;5184683;28;20125;-68
2022/09/14 01:26:15;;;;;;;8.40;4.35;;;20.10;99.90;;;20.55;100.00;100063.63;5184466;28;20049;-70
2022/09/14 01:28:53;;;;;;;10.00;4.82;;;20.10;99.90;;;20.54;100.00;100062.75;5184602;28;20046;-67
2022/09/14 01:31:30;;;;;;;9.13;5.00;;;20.10;99.90;;;20.53;100.00;100060.97;5199766;28;20141;-68
2022/09/14 01:34:12;;;;;;;9.45;4.57;;;20.10;99.90;;;20.53;100.00;100060.09;5184362;28;20038;-68
2022/09/14 01:36:50;;;;;;;10.30;5.35;;;20.10;99.90;;;20.54;100.00;100059.22;5184144;28;20067;-70
2022/09/14 01:39:23;;;;;;;10.25;5.30;;;20.10;99.90;;;20.51;100.00;100067.22;5184388;28;20269;-66
2022/09/14 01:41:56;;;;;;;9.20;4.93;;;20.10;99.90;;;20.53;100.00;100073.34;5184565;28;20410;-70
2022/09/14 01:44:34;;;;;;;13.13;6.00;;;20.10;99.90;;;20.53;100.00;100075.97;5184381;28;20446;-69
2022/09/14 01:47:16;;;;;;;12.25;6.13;;;20.10;99.90;;;20.53;100.00;100070.69;5183728;28;20080;-69
2022/09/14 01:49:53;;;;;;;12.00;6.15;;;20.10;99.90;;;20.52;100.00;100075.13;5184203;28;20038;-67
2022/09/14 01:52:33;;;;;;;13.70;6.88;;;20.10;99.90;;;20.51;100.00;100072.50;5184223;28;20044;-67
2022/09/14 01:55:11;;;;;;;12.38;6.15;;;20.00;99.90;;;20.52;100.00;100074.25;5184564;28;20418;-69
2022/09/14 01:57:48;;;;;;;12.70;6.00;;;20.10;99.90;;;20.51;100.00;100072.50;5214910;22;20037;-72
2022/09/14 02:00:23;;;;;;;12.05;5.63;;;20.10;99.90;;;20.50;100.00;100070.75;5213175;28;20048;-71
2022/09/14 02:02:59;;;;;;;12.68;6.03;;;20.10;99.90;;;20.50;100.00;100068.09;5224490;28;20041;-72
2022/09/14 02:05:38;;;;;;;11.10;5.57;;;20.00;99.90;;;20.50;100.00;100061.03;5223140;28;20053;-71
2022/09/14 02:08:11;;;;;;;10.90;5.63;;;20.10;99.90;;;20.50;100.00;100065.47;5225141;28;20052;-71
2022/09/14 02:10:44;;;;;;;10.80;5.28;;;20.10;99.90;;;20.50;100.00;100057.53;5224878;28;20044;-71
2022/09/14 02:13:17;;;;;;;9.77;4.97;;;20.00;99.90;;;20.51;100.00;100053.97;5223417;28;20128;-71
2022/09/14 02:15:51;;;;;;;11.05;5.85;;;20.10;99.90;;;20.51;100.00;100061.91;5224177;28;20040;-71
2022/09/14 02:18:23;;;;;;;10.07;5.07;;;20.10;99.90;;;20.49;100.00;100058.44;5224844;28;20057;-72
2022/09/14 02:20:59;;;;;;;8.35;4.97;;;20.00;99.90;;;20.48;100.00;100051.38;5224954;28;20123;-71
2022/09/14 02:23:32;;;;;;;10.10;5.13;;;20.00;99.90;;;20.48;100.00;100040.81;5228033;28;20163;-71
2022/09/14 02:26:04;;;;;;;10.00;5.20;;;20.00;99.90;;;20.46;100.00;100032.00;5228399;28;20079;-72
2022/09/14 02:28:37;;;;;;;10.98;5.68;;;20.00;99.90;;;20.47;100.00;100039.03;5228797;28;20047;-72
2022/09/14 02:31:25;;;;;;;9.45;4.88;;;20.10;99.90;;;20.46;100.00;100038.16;5229006;28;20047;-71
2022/09/14 02:34:08;;;;;;;9.27;5.28;;;20.00;99.90;;;20.47;100.00;100034.59;5228858;28;20044;-71
2022/09/14 02:36:50;;;;;;;10.73;6.05;;;20.00;99.90;;;20.45;100.00;100033.78;5228524;28;20048;-71
2022/09/14 02:39:34;;;;;;;11.20;5.50;;;20.00;99.90;;;20.45;100.00;100027.59;5227603;28;20045;-72
2022/09/14 02:42:21;;;;;;;11.63;5.95;;;20.10;99.90;;;20.44;100.00;100018.75;5228647;28;20041;-73
2022/09/14 02:45:09;;;;;;;8.77;4.82;;;20.00;99.90;;;20.44;100.00;100020.53;5228418;28;20045;-71
2022/09/14 02:47:54;;;;;;;10.45;4.97;;;20.00;99.90;;;20.43;100.00;100016.16;5228162;28;20537;-72
2022/09/14 02:50:36;;;;;;;11.07;5.28;;;20.00;99.90;;;20.42;100.00;100006.47;5228452;28;20513;-72
2022/09/14 02:53:17;;;;;;;13.02;5.43;;;20.00;99.90;;;20.42;100.00;100009.09;5228167;28;20045;-72
2022/09/14 02:55:57;;;;;;;9.40;4.78;;;20.00;99.90;;;20.42;100.00;99995.88;5226742;28;20052;-71
2022/09/14 02:58:35;;;;;;;10.68;5.35;;;20.00;99.90;;;20.41;100.00;99991.44;5228451;28;20041;-71
2022/09/14 03:01:11;;;;;;;11.43;5.20;;;20.00;99.90;;;20.43;100.00;99994.97;5228277;28;20052;-71
2022/09/14 03:03:46;;;;;;;9.35;4.88;;;20.00;99.90;;;20.43;100.00;99987.03;5228428;28;20272;-71
2022/09/14 03:06:18;;;;;;;11.63;5.47;;;20.00;99.90;;;20.42;100.00;99982.63;5227783;28;20067;-71
2022/09/14 03:08:50;;;;;;;12.82;6.45;;;20.00;99.90;;;20.41;100.00;99980.88;5228255;28;20051;-71
2022/09/14 03:11:23;;;;;;;10.40;5.05;;;20.00;99.90;;;20.42;100.00;99972.06;5228110;28;20045;-72
2022/09/14 03:13:55;;;;;;;10.10;5.10;;;20.00;99.90;;;20.39;100.00;99962.38;5227782;28;20425;-71
2022/09/14 03:16:27;;;;;;;13.43;6.80;;;20.00;99.90;;;20.39;100.00;99966.78;5227657;28;20041;-71
2022/09/14 03:19:00;;;;;;;10.15;5.10;;;20.00;99.90;;;20.36;100.00;99966.88;5226549;28;20148;-71
2022/09/14 03:21:33;;;;;;;14.18;6.05;;;19.90;99.90;;;20.36;100.00;99961.56;5227958;28;20049;-72
2022/09/14 03:24:05;;;;;;;11.90;5.45;;;19.90;99.90;;;20.36;100.00;99964.22;5226549;28;20052;-72
2022/09/14 03:26:38;;;;;;;11.55;5.03;;;19.90;99.90;;;20.35;100.00;99960.72;5227430;28;20131;-72
2022/09/14 03:29:10;;;;;;;10.27;4.70;;;19.90;99.90;;;20.35;100.00;99967.78;5227550;28;20524;-72
2022/09/14 03:31:43;;;;;;;10.20;4.75;;;19.90;99.90;;;20.34;100.00;99953.63;5227648;28;20067;-72
2022/09/14 03:34:17;;;;;;;9.90;4.53;;;19.90;99.90;;;20.35;100.00;99959.84;5226179;28;20045;-72
2022/09/14 03:36:49;;;;;;;10.77;4.90;;;19.90;99.90;;;20.33;100.00;99951.91;5227149;28;20045;-71
2022/09/14 03:39:21;;;;;;;9.65;4.57;;;19.90;99.90;;;20.31;100.00;99957.22;5227682;28;20071;-72
2022/09/14 03:41:53;;;;;;;10.15;5.68;;;19.90;99.90;;;20.32;100.00;99964.25;5227654;28;20045;-71
2022/09/14 03:44:26;;;;;;;10.13;4.63;;;19.90;99.90;;;20.30;100.00;99966.06;5227662;28;20036;-71
2022/09/14 03:46:58;;;;;;;10.95;5.35;;;19.90;99.90;;;20.30;100.00;99952.84;5227333;28;20128;-72
2022/09/14 03:49:31;;;;;;;10.90;5.03;;;19.90;99.90;;;20.30;100.00;99951.97;5227137;28;20045;-72
2022/09/14 03:52:03;;;;;;;12.98;6.18;;;19.90;99.90;;;20.30;100.00;99951.97;5227384;28;20531;-72
2022/09/14 03:54:36;;;;;;;10.00;4.80;;;19.90;99.90;;;20.28;100.00;99944.06;5227350;28;20045;-72
2022/09/14 03:57:08;;;;;;;9.60;5.05;;;19.90;99.90;;;20.28;100.00;99954.66;5226741;28;20063;-72
2022/09/14 03:59:40;;;;;;;11.43;4.63;;;19.90;99.90;;;20.28;100.00;99952.00;5225707;28;20497;-71
2022/09/14 04:02:13;;;;;;;11.63;4.68;;;19.90;99.90;;;20.28;100.00;99949.38;5225849;28;20045;-71
2022/09/14 04:04:47;;;;;;;11.45;5.22;;;19.90;99.90;;;20.28;100.00;99959.94;5225820;28;20052;-72
2022/09/14 04:07:19;;;;;;;8.88;4.65;;;19.90;99.90;;;20.27;100.00;99947.59;5225348;28;20508;-71
2022/09/14 04:09:52;;;;;;;10.55;4.85;;;19.90;99.90;;;20.26;100.00;99953.78;5227124;28;20068;-72
2022/09/14 04:12:24;;;;;;;11.50;4.88;;;19.80;99.90;;;20.24;100.00;99954.72;5227273;28;20041;-71
2022/09/14 04:14:56;;;;;;;9.32;4.65;;;19.90;99.90;;;20.23;100.00;99955.63;5226733;28;20037;-72
2022/09/14 04:17:29;;;;;;;10.55;4.78;;;19.80;99.90;;;20.21;100.00;99960.97;5226408;28;20041;-72
2022/09/14 04:20:04;;;;;;;10.07;5.05;;;19.80;99.90;;;20.22;100.00;99943.31;5226614;28;20041;-71
2022/09/14 04:22:36;;;;;;;10.63;4.85;;;19.80;99.90;;;20.22;100.00;99940.66;5226614;28;20044;-72
2022/09/14 04:25:08;;;;;;;9.27;4.47;;;19.80;99.90;;;20.21;100.00;99942.44;5226626;28;20037;-72
2022/09/14 04:27:41;;;;;;;9.52;4.40;;;19.80;99.90;;;20.21;100.00;99945.09;5226123;28;20040;-71
2022/09/14 04:30:14;;;;;;;10.65;4.22;;;19.80;99.90;;;20.20;100.00;99940.66;5226539;28;20040;-71
2022/09/14 04:32:46;;;;;;;11.13;4.90;;;19.80;99.90;;;20.21;100.00;99937.16;5226538;28;20056;-72
2022/09/14 04:35:19;;;;;;;10.63;4.40;;;19.80;99.90;;;20.20;100.00;99945.97;5226330;28;20390;-71
2022/09/14 04:37:51;;;;;;;9.10;4.35;;;19.80;99.90;;;20.20;100.00;99935.38;5224701;28;20045;-71
2022/09/14 04:40:24;;;;;;;10.70;5.32;;;19.80;99.90;;;20.20;100.00;99931.84;5226254;28;20064;-72
2022/09/14 04:42:56;;;;;;;10.80;4.85;;;19.80;99.90;;;20.19;100.00;99936.28;5226449;28;20132;-71
2022/09/14 04:45:28;;;;;;;11.65;5.13;;;19.80;99.90;;;20.19;100.00;99936.28;5225628;28;20421;-71
2022/09/14 04:48:00;;;;;;;12.75;6.15;;;19.80;99.90;;;20.18;100.00;99934.53;5224681;28;20060;-72
2022/09/14 04:50:34;;;;;;;11.75;5.68;;;19.80;99.90;;;20.17;100.00;99929.28;5226175;28;20049;-72
2022/09/14 04:53:07;;;;;;;11.52;5.13;;;19.80;99.90;;;20.16;100.00;99923.13;5226091;28;20037;-71
2022/09/14 04:55:40;;;;;;;12.00;5.50;;;19.70;99.90;;;20.15;100.00;99926.66;5225866;28;20041;-72
2022/09/14 04:58:12;;;;;;;9.93;4.72;;;19.70;99.90;;;20.16;100.00;99922.25;5225727;28;20350;-72
2022/09/14 05:00:45;;;;;;;12.50;5.07;;;19.70;99.90;;;20.15;100.00;99921.38;5224544;28;20045;-71
2022/09/14 05:03:17;;;;;;;10.35;4.45;;;19.70;99.90;;;20.13;100.00;99923.16;5225885;28;20048;-70
2022/09/14 05:05:51;;;;;;;11.20;5.30;;;19.70;99.90;;;20.13;100.00;99920.50;5225521;28;20051;-71
2022/09/14 05:08:23;;;;;;;10.25;4.63;;;19.70;99.90;;;20.13;100.00;99919.66;5225699;28;20048;-71
2022/09/14 05:10:57;;;;;;;12.85;5.47;;;19.70;99.90;;;20.13;100.00;99917.00;5224270;28;20044;-71
2022/09/14 05:13:30;;;;;;;9.02;4.50;;;19.70;99.90;;;20.09;100.00;99916.19;5225788;28;20053;-71
2022/09/14 05:16:07;;;;;;;13.38;5.60;;;19.70;99.90;;;20.09;100.00;99921.50;5225192;28;20041;-71
2022/09/14 05:18:39;;;;;;;11.30;5.35;;;19.70;99.90;;;20.08;100.00;99914.44;5225672;28;20053;-71
2022/09/14 05:21:14;;;;;;;9.75;4.40;;;19.70;99.90;;;20.07;100.00;99910.03;5225585;28;20051;-71
2022/09/14 05:23:47;;;;;;;9.88;4.85;;;19.70;99.90;;;20.08;100.00;99909.13;5225459;28;20051;-71
2022/09/14 05:26:20;;;;;;;12.40;5.32;;;19.70;99.90;;;20.07;100.00;99902.09;5224944;28;20041;-71
2022/09/14 05:28:54;;;;;;;10.15;4.70;;;19.70;99.90;;;20.07;100.00;99912.69;5225515;28;20044;-71
2022/09/14 05:31:28;;;;;;;11.77;5.22;;;19.70;99.90;;;20.07;100.00;99902.09;5225146;28;20049;-71
2022/09/14 05:34:01;;;;;;;11.88;4.38;;;19.70;99.90;;;20.05;100.00;99906.56;5224934;28;20048;-71
2022/09/14 05:36:36;;;;;;;13.55;5.47;;;19.70;99.90;;;20.04;100.00;99907.47;5224595;28;20120;-70
2022/09/14 05:39:10;;;;;;;10.27;4.18;;;19.60;99.90;;;20.02;100.00;99901.34;5224167;28;20055;-71
2022/09/14 05:41:43;;;;;;;9.75;4.50;;;19.60;99.90;;;20.02;100.00;99906.63;5224913;28;20060;-71
2022/09/14 05:44:15;;;;;;;10.32;4.80;;;19.60;99.90;;;20.02;100.00;99911.91;5223717;28;20057;-71
2022/09/14 05:46:47;;;;;;;7.18;3.65;;;19.60;99.90;;;20.01;100.00;99902.22;5224560;28;20040;-70
2022/09/14 05:49:19;;;;;;;9.50;4.43;;;19.60;99.90;;;20.00;100.00;99909.28;5224527;28;20540;-71
2022/09/14 05:51:52;;;;;;;7.55;3.78;;;19.60;99.90;;;20.01;100.00;99905.72;5224844;28;20056;-70
2022/09/14 05:54:24;;;;;;;8.20;4.00;;;19.60;99.90;;;20.02;100.00;99909.28;5225034;28;20036;-71
2022/09/14 05:56:56;;;;;;;10.50;4.80;;;19.60;99.90;;;20.03;100.00;99905.72;5223719;28;20067;-70
2022/09/14 05:59:30;;;;;;;9.98;4.57;;;19.60;99.90;;;20.02;100.00;99901.34;5224980;28;20052;-70
2022/09/14 06:02:02;;;;;;;9.13;4.20;;;19.60;99.90;;;20.03;100.00;99900.44;5224907;28;20052;-70
2022/09/14 06:04:35;;;;;;;8.13;3.67;;;19.60;99.90;;;20.01;100.00;99896.91;5224539;28;20040;-59
2022/09/14 06:07:08;;;;;;;7.35;3.70;;;19.60;99.90;;;20.02;100.00;99896.03;5224681;28;20076;-58
2022/09/14 06:09:41;;;;;;;8.93;4.15;;;19.60;99.90;;;20.02;100.00;99893.41;5224389;28;20055;-58
2022/09/14 06:12:13;;;;;;;8.73;3.95;;;19.60;99.90;;;20.01;100.00;99899.56;5223040;28;20513;-58
2022/09/14 06:14:45;;;;;;;9.35;4.13;;;19.60;99.90;;;20.00;100.00;99898.69;5224581;28;20228;-59
2022/09/14 06:17:17;;;;;;;8.02;3.55;;;19.60;99.90;;;20.00;100.00;99903.13;5224386;28;20048;-58
2022/09/14 06:19:49;;;;;;;8.30;3.85;;;19.60;99.90;;;19.99;100.00;99899.59;5224655;28;20498;-59
2022/09/14 06:22:23;;;;;;;7.03;3.30;;;19.60;99.90;;;19.99;100.00;99906.66;5224168;28;20049;-59
2022/09/14 06:24:55;;;;;;;9.50;3.85;;;19.60;99.90;;;19.99;100.00;99909.31;5224042;28;20045;-59
2022/09/14 06:27:27;;;;;;;8.35;3.58;;;19.60;99.90;;;19.98;100.00;99903.16;5224189;28;20505;-59
2022/09/14 06:29:59;;;;;;;7.13;3.35;;;19.60;99.90;;;20.00;100.00;99909.28;5222971;28;20052;-58
2022/09/14 06:32:31;;;;;;;7.10;3.42;;;19.60;99.90;;;19.99;100.00;99907.53;5224388;28;20163;-58
2022/09/14 06:35:05;;;;;;;7.88;3.53;;;19.60;99.90;;;19.97;100.00;99911.13;5223946;28;20052;-58
2022/09/14 06:37:38;;;;;;;7.25;3.33;;;19.60;99.90;;;19.95;100.00;99892.63;5224145;28;20128;-58
2022/09/14 06:40:11;;;;;;;7.05;3.60;;;19.60;99.90;;;19.95;100.00;99907.59;5223924;28;20045;-58
2022/09/14 06:42:43;;;;;;;8.48;4.13;;;19.50;99.90;;;19.95;100.00;99912.91;5224265;28;20045;-58
2022/09/14 06:45:15;;;;;;;7.18;3.40;;;19.60;99.90;;;19.95;100.00;99910.25;5224127;28;20040;-59
2022/09/14 06:47:47;;;;;;;8.88;4.25;;;19.50;99.90;;;19.95;100.00;99913.81;5223909;28;20045;-59
2022/09/14 06:50:19;;;;;;;6.53;3.28;;;19.60;99.90;;;19.96;100.00;99914.66;5224052;28;20045;-58
2022/09/14 06:52:53;;;;;;;7.40;3.25;;;19.50;99.90;;;19.97;100.00;99921.69;5223942;28;20053;-58
2022/09/14 06:55:26;;;;;;;8.65;4.05;;;19.60;99.90;;;19.97;100.00;99916.41;5223865;28;20120;-58
2022/09/14 06:57:58;;;;;;;5.68;2.92;;;19.60;99.90;;;19.98;100.00;99928.72;5223975;28;20045;-58
2022/09/14 07:00:30;;;;;;;7.68;3.50;;;19.60;99.90;;;19.98;100.00;99928.72;5223827;28;20402;-58
2022/09/14 07:03:02;;;;;;;6.88;3.35;;;19.60;99.90;;;19.99;100.00;99927.81;5224128;28;20133;-58
2022/09/14 07:05:34;;;;;;;5.88;3.33;;;19.60;99.90;;;19.99;100.00;99925.19;5223819;28;20041;-57
2022/09/14 07:08:07;;;;;;;4.85;2.55;;;19.60;99.90;;;19.99;100.00;99919.91;5224921;28;20044;-58
2022/09/14 07:10:41;;;;;;;3.08;1.88;;;19.60;99.90;;;20.02;100.00;99917.22;5226404;28;20052;-59
2022/09/14 07:13:13;;;;;;;3.15;2.00;;;19.60;99.90;;;20.19;100.00;99911.59;5227531;28;20402;-58
2022/09/14 07:15:49;;;;;;;5.65;2.78;;;19.80;99.90;;;20.39;100.00;99911.22;5227239;28;20049;-58
2022/09/14 07:18:22;;;;;;;5.13;2.50;;;20.00;99.90;;;20.55;100.00;99910.94;5227603;28;20052;-58
2022/09/14 07:20:54;;;;;;;6.82;2.90;;;20.20;99.90;;;20.72;100.00;99902.63;5227488;28;20049;-57
2022/09/14 07:23:28;;;;;;;7.00;3.65;;;20.40;99.90;;;20.84;100.00;99912.97;5227375;28;20053;-58
2022/09/14 07:26:02;;;;;;;8.38;4.00;;;20.50;99.90;;;20.82;100.00;99901.56;5227467;28;20041;-57
2022/09/14 07:28:36;;;;;;;5.03;3.13;;;20.60;99.90;;;20.76;100.00;99909.63;5227534;28;20493;-56
2022/09/14 07:31:17;;;;;;;8.80;3.72;;;20.50;99.90;;;20.65;100.00;99897.50;5227301;28;20056;-56
2022/09/14 07:33:53;;;;;;;6.85;3.78;;;20.40;99.90;;;20.54;100.00;99887.16;5227482;28;20053;-56
2022/09/14 07:36:27;;;;;;;7.13;3.25;;;20.30;99.90;;;20.47;100.00;99890.78;5227248;28;20524;-58
2022/09/14 07:39:02;;;;;;;6.72;3.20;;;20.30;99.90;;;20.43;100.00;99889.09;5227699;28;20128;-57
2022/09/14 07:41:34;;;;;;;;;;;20.20;99.90;;;20.39;100.00;99885.63;5227588;28;20053;-57
2022/09/14 07:44:08;;;;;;;4.80;2.65;;;20.10;99.90;;;20.37;100.00;99881.28;5227285;28;19928;-56
2022/09/14 07:46:44;;;;;;;5.80;3.08;;;20.10;99.90;;;20.35;100.00;99885.72;5227007;28;20520;-57
2022/09/14 07:49:17;;;;;;;5.45;2.70;;;20.00;99.90;;;20.33;100.00;99875.16;5226954;28;20049;-57
2022/09/14 07:51:49;;;;;;;3.70;2.33;;;20.00;99.90;;;20.33;100.00;99883.09;5227056;28;20049;-57
2022/09/14 07:54:22;;;;;;;3.78;2.53;;;20.00;99.90;;;20.33;100.00;99877.81;5226765;28;20056;-56
2022/09/14 07:56:54;;;;;;;6.35;3.10;;;20.00;99.90;;;20.32;100.00;99882.22;5226390;28;20040;-58
2022/09/14 07:59:26;;;;;;;5.50;3.15;;;20.00;99.90;;;20.31;100.00;99877.84;5225128;28;20533;-57
2022/09/14 08:01:58;;;;;;;5.00;2.90;;;20.00;99.90;;;20.30;100.00;99876.09;5226624;28;20168;-58
2022/09/14 08:04:30;;;;;;;7.03;3.10;;;19.90;99.90;;;20.30;100.00;99883.16;5227679;28;20098;-58
2022/09/14 08:07:03;;;;;;;6.20;3.13;;;19.90;99.90;;;20.30;100.00;99880.53;5226351;28;20392;-58
2022/09/14 08:09:38;;;;;;;4.45;2.30;;;19.90;99.90;;;20.31;100.00;99875.19;5226558;28;20429;-58
2022/09/14 08:12:10;;;;;;;4.82;2.80;;;20.00;99.90;;;20.33;100.00;99873.38;5226709;28;20135;-58
2022/09/14 08:14:42;;;;;;;4.90;2.42;;;20.00;99.90;;;20.36;100.00;99871.59;5226200;28;20037;-58
2022/09/14 08:17:14;;;;;;;3.83;2.45;;;20.00;99.90;;;20.38;100.00;99875.06;5226765;28;20383;-57
2022/09/14 08:19:46;;;;;;;5.45;2.60;;;20.00;99.90;;;20.39;100.00;99869.75;5225486;28;20518;-57
2022/09/14 08:22:19;;;;;;;5.15;2.85;;;20.00;99.90;;;20.43;100.00;99875.84;5236795;22;20329;-57
2022/09/14 08:24:52;;;;;;;4.13;2.42;;;20.00;99.90;;;20.44;100.00;99877.59;5201381;28;20144;-54
2022/09/14 08:27:24;;;;;;;4.45;2.20;;;20.00;99.90;;;20.45;100.00;99882.03;5225577;28;20056;-56
2022/09/14 08:29:56;;;;;;;4.13;2.42;;;20.10;99.90;;;20.45;100.00;99887.31;5218782;28;20457;-56
2022/09/14 08:32:28;;;;;;;3.08;2.20;;;20.00;99.90;;;20.43;100.00;99878.50;5205397;28;20052;-54
2022/09/14 08:35:01;;;;;;;4.20;2.15;;;20.00;99.90;;;20.40;100.00;99881.19;5204885;28;20733;-55
2022/09/14 08:37:33;;;;;;;3.20;2.15;;;20.00;99.90;;;20.33;100.00;99878.66;5204605;28;20053;-55
2022/09/14 08:40:10;;;;;;;3.00;1.88;;;20.00;99.90;;;20.24;100.00;99889.44;5205268;28;20099;-55
2022/09/14 08:42:56;;;;;;;3.45;1.88;;;19.90;99.90;;;20.16;100.00;99896.66;5205890;28;20053;-53
2022/09/14 08:45:29;;;;;;;1.85;1.50;;;19.90;99.90;;;20.13;100.00;99901.13;5205956;28;20136;-53
2022/09/14 08:48:04;;;;;;;1.58;1.23;;;19.80;99.90;;;20.12;100.00;99894.97;5206588;28;20049;-54
2022/09/14 08:50:40;;;;;;;2.28;1.25;;;19.80;99.90;;;20.10;100.00;99896.78;5206075;28;20081;-54
2022/09/14 08:53:12;;;;;;;2.03;1.55;;;19.70;99.90;;;20.10;100.00;99894.13;5206079;28;20139;-55
2022/09/14 08:55:52;;;;;;;2.85;1.35;;;19.70;99.90;;;20.10;100.00;99899.41;5204717;28;20041;-54
2022/09/14 08:58:46;;;;;;;2.13;1.40;;;19.70;99.90;;;20.09;100.00;99896.81;5205509;28;20046;-56
2022/09/14 09:01:25;;;;;;;2.25;1.48;;;19.70;99.90;;;20.07;100.00;99902.09;5205412;28;20056;-55
2022/09/14 09:04:27;;;;;;;2.53;1.60;;;19.70;99.90;;;20.08;100.00;99903.84;5205154;28;20076;-55
2022/09/14 09:07:07;;;;;;;2.28;1.45;;;19.70;99.90;;;20.10;100.00;99901.19;5204626;28;20049;-55
2022/09/14 09:09:45;;;;;;;2.60;1.52;;;19.80;99.90;;;20.13;100.00;99907.28;5204899;28;20060;-54
2022/09/14 09:12:22;;;;;;;3.75;1.80;;;19.80;99.90;;;20.15;100.00;99899.31;5204909;28;20398;-53
2022/09/14 09:14:57;;;;;;;2.42;1.88;;;19.80;99.90;;;20.14;100.00;99901.09;5204629;28;20583;-56
2022/09/14 09:17:34;;;;;;;2.38;1.60;;;19.80;99.90;;;20.14;100.00;99898.44;5204491;28;20079;-55
2022/09/14 09:20:15;;;;;;;3.33;2.15;;;19.80;99.90;;;20.12;100.00;99905.53;5204447;28;20172;-53
2022/09/14 09:22:53;;;;;;;2.28;1.90;;;19.80;99.90;;;20.11;100.00;99902.94;5204798;28;20081;-54
2022/09/14 09:25:44;;;;;;;2.97;2.35;;;19.80;99.90;;;20.06;100.00;99913.59;5205332;28;20084;-55
2022/09/14 09:28:18;;;;;;;3.10;2.50;;;19.70;99.90;;;20.05;100.00;99909.22;5204703;28;20057;-54
2022/09/14 09:30:52;;;;;;;4.07;2.83;;;19.70;99.90;;;20.01;100.00;99910.16;5204360;28;20058;-55
2022/09/14 09:33:27;;;;;;;4.07;2.97;;;19.70;99.90;;;19.98;100.00;99899.63;5203159;28;20064;-55
2022/09/14 09:36:18;;;;;;;3.97;3.15;;;19.70;99.90;;;19.93;100.00;99897.06;5202544;28;20041;-55
2022/09/14 09:38:51;;;;;;;4.18;3.22;;;19.60;99.90;;;19.94;100.00;99890.00;5204337;28;20069;-54
2022/09/14 09:41:26;;;;;;;4.72;3.08;;;19.60;99.90;;;19.92;100.00;99902.38;5204583;28;20521;-55
2022/09/14 09:44:05;;;;;;;4.10;2.80;;;19.60;99.90;;;19.90;100.00;99904.19;5204407;28;20037;-55
2022/09/14 09:46:40;;;;;;;4.35;3.10;;;19.60;99.90;;;19.85;100.00;99900.75;5203955;28;20046;-54
2022/09/14 09:49:21;;;;;;;5.65;3.22;;;19.50;99.90;;;19.83;100.00;99913.13;5204188;28;20049;-55
2022/09/14 09:51:53;;;;;;;3.97;3.08;;;19.50;99.90;;;19.84;100.00;99906.94;5203988;28;20049;-55
2022/09/14 09:54:29;;;;;;;5.25;3.72;;;19.50;99.90;;;19.83;100.00;99902.56;5204100;28;20053;-54
2022/09/14 09:57:05;;;;;;;4.72;3.22;;;19.50;99.90;;;19.81;100.00;99905.19;5203573;28;20076;-54
2022/09/14 09:59:41;;;;;;;6.28;4.40;;;19.40;99.90;;;19.78;100.00;99895.56;5204087;28;20057;-55
2022/09/14 10:02:24;;;;;;;4.63;3.53;;;19.40;99.90;;;19.78;100.00;99887.63;5203981;28;20116;-55
2022/09/14 10:05:02;;;;;;;3.83;2.92;;;19.50;99.90;;;19.82;100.00;99882.28;5203842;28;20533;-56
2022/09/14 10:07:40;;;;;;;6.35;3.70;;;19.50;99.90;;;19.84;100.00;99873.44;5203619;28;20449;-56
2022/09/14 10:10:14;;;;;;;7.10;3.85;;;19.40;99.90;;;19.88;100.00;99871.59;5203747;28;20056;-55
2022/09/14 10:12:48;;;;;;;5.18;3.60;;;19.50;99.90;;;19.86;100.00;99866.34;5203772;28;20056;-54
2022/09/14 10:15:25;;;;;;;7.50;4.50;;;19.50;99.90;;;19.86;100.00;99862.81;5203914;28;20069;-55
2022/09/14 10:18:07;;;;;;;5.35;3.60;;;19.50;99.90;;;19.89;100.00;99870.72;5203641;28;20402;-55
2022/09/14 10:20:43;;;;;;;4.80;3.47;;;19.50;99.90;;;19.91;100.00;99863.63;5203750;28;20051;-55
2022/09/14 10:23:25;;;;;;;5.95;3.95;;;19.60;99.90;;;19.92;100.00;99858.28;5204025;28;20084;-54
2022/09/14 10:26:23;;;;;;;5.65;3.58;;;19.60;99.90;;;19.94;100.00;99855.63;5203465;28;20041;-56
2022/09/14 10:29:25;;;;;;;6.47;3.88;;;19.60;99.90;;;19.95;100.00;99860.91;5203847;28;20053;-55
2022/09/14 10:32:06;;;;;;;6.22;3.70;;;19.60;99.90;;;19.99;100.00;99861.69;5204020;28;20056;-54
2022/09/14 10:34:38;;;;;;;5.60;4.00;;;19.70;99.90;;;20.00;100.00;99874.03;5203713;28;20072;-54
2022/09/14 10:37:30;;;;;;;6.72;3.83;;;19.70;99.90;;;20.02;100.00;99874.88;5203366;28;20532;-54
2022/09/14 10:40:15;;;;;;;5.45;3.13;;;19.70;99.90;;;20.01;100.00;99870.47;5203821;28;20486;-54